Stephenson, Virginia
Current Conditions -  °F | °C
As of 7:15 PM on Saturday 22 Nov 2014 (Local Time) from KOKV Reporting Station
Broken Clouds Broken Clouds  
Wind Chill: 43°   Ceiling: 11000
Heat Index: 43°   Visibility: 10mi
Dew Point: 12°   Wind: 3mph
Humidity: 29%   Direction: 200°SSW
Pressure: 30.22"   Gusts: NA
Location:  39.22°N, 78.09°W
Report Text: KOKV 230015Z AUTO 20003KT 10SM BKN110 06/M11 A3022 RMK AO2
Loading
Personal Weather Stations






























Interactive Weather Map New forecast layout! Learn more

10-Day Weather Forecast

Advertisements
Track Severe Weather on mobile